Time;durP1;ratioP1;P1;durP2;ratioP2;P2;SDS_P1;SDS_P2;PMS_P1;PMS_P2;Temp;Humidity;BMP_temperature;BMP_pressure;BME280_temperature;BME280_humidity;BME280_pressure;Samples;Min_cycle;Max_cycle;Signal;HPM_P1;HPM_P2
2022/11/27 00:02:04;;;;;;;;;;;10.80;59.80;;;;;;5062054;28;19924;-87
2022/11/27 00:04:29;;;;;;;;;;;10.80;59.80;;;;;;5043975;28;19917;-87
2022/11/27 00:06:55;;;;;;;;;;;10.80;59.80;;;;;;5046702;28;19921;-89
2022/11/27 00:09:21;;;;;;;;;;;10.80;59.90;;;;;;5042221;28;19935;-88
2022/11/27 00:11:46;;;;;;;;;;;10.80;60.00;;;;;;5060484;28;20263;-87
2022/11/27 00:14:13;;;;;;;;;;;10.80;60.00;;;;;;5045349;28;20359;-87
2022/11/27 00:16:39;;;;;;;;;;;10.70;60.00;;;;;;5034541;28;20253;-88
2022/11/27 00:19:04;;;;;;;;;;;10.70;60.00;;;;;;5043077;28;19999;-88
2022/11/27 00:21:31;;;;;;;;;;;10.70;60.00;;;;;;5051469;28;19916;-88
2022/11/27 00:23:58;;;;;;;;;;;10.70;60.00;;;;;;5072596;28;19928;-88
2022/11/27 00:26:24;;;;;;;;;;;10.70;60.10;;;;;;5074402;28;19908;-89
2022/11/27 00:28:50;;;;;;;;;;;10.70;60.20;;;;;;5092760;28;20466;-88
2022/11/27 00:31:16;;;;;;;;;;;10.70;60.20;;;;;;5080688;28;20340;-88
2022/11/27 00:33:42;;;;;;;;;;;10.70;60.20;;;;;;5078867;28;19923;-89
2022/11/27 00:36:08;;;;;;;;;;;10.70;60.30;;;;;;5073767;28;19909;-87
2022/11/27 00:38:35;;;;;;;;;;;10.70;60.20;;;;;;5073751;28;19924;-89
2022/11/27 00:41:07;;;;;;;;;;;10.70;60.20;;;;;;5052662;28;19915;-89
2022/11/27 00:43:33;;;;;;;;;;;10.70;60.10;;;;;;5056515;28;19927;-88
2022/11/27 00:45:59;;;;;;;;;;;10.70;60.10;;;;;;5036641;28;20493;-88
2022/11/27 00:48:24;;;;;;;;;;;10.70;60.00;;;;;;5047312;28;19971;-88
2022/11/27 00:50:50;;;;;;;;;;;10.60;59.80;;;;;;5070419;28;19970;-89
2022/11/27 00:53:16;;;;;;;;;;;10.60;59.60;;;;;;5052591;28;19916;-87
2022/11/27 00:55:41;;;;;;;;;;;10.60;59.50;;;;;;5052248;28;19923;-88
2022/11/27 00:58:07;;;;;;;;;;;10.50;59.30;;;;;;5070538;28;20271;-87
2022/11/27 01:00:32;;;;;;;;;;;10.40;59.30;;;;;;5052015;28;19916;-89
2022/11/27 01:02:58;;;;;;;;;;;10.40;59.20;;;;;;5057343;28;19923;-89
2022/11/27 01:05:24;;;;;;;;;;;10.30;59.00;;;;;;5090918;28;19923;-88
2022/11/27 01:07:49;;;;;;;;;;;10.20;58.90;;;;;;5078592;28;19920;-87
2022/11/27 01:10:15;;;;;;;;;;;10.20;58.90;;;;;;5039879;28;20323;-89
2022/11/27 01:12:41;;;;;;;;;;;10.10;58.90;;;;;;5043906;28;20230;-89
2022/11/27 01:15:07;;;;;;;;;;;10.00;59.00;;;;;;5053515;28;19916;-88
2022/11/27 01:17:33;;;;;;;;;;;10.00;59.20;;;;;;5070808;28;19947;-88
2022/11/27 01:19:58;;;;;;;;;;;9.90;59.30;;;;;;5052635;28;19909;-87
2022/11/27 01:22:24;;;;;;;;;;;9.90;59.40;;;;;;5052017;28;20005;-89
2022/11/27 01:24:49;;;;;;;;;;;9.90;59.40;;;;;;5052486;28;19916;-87
2022/11/27 01:27:15;;;;;;;;;;;9.80;59.20;;;;;;5069497;28;19923;-87
2022/11/27 01:29:40;;;;;;;;;;;9.80;59.10;;;;;;5050573;28;19916;-89
2022/11/27 01:32:06;;;;;;;;;;;9.70;59.10;;;;;;5035986;28;19909;-87
2022/11/27 01:34:32;;;;;;;;;;;9.70;59.10;;;;;;5083847;28;19912;-87
2022/11/27 01:36:57;;;;;;;;;;;9.60;59.00;;;;;;5068753;28;19909;-88
2022/11/27 01:39:23;;;;;;;;;;;9.50;59.00;;;;;;5054703;28;20267;-87
2022/11/27 01:41:49;;;;;;;;;;;9.50;58.80;;;;;;5052428;28;19913;-89
2022/11/27 01:44:24;;;;;;;;;;;9.40;58.60;;;;;;5050572;28;19963;-89
2022/11/27 01:46:52;;;;;;;;;;;9.40;58.40;;;;;;5051910;28;20279;-88
2022/11/27 01:49:33;;;;;;;;;;;9.30;58.20;;;;;;5051223;28;20295;-88
2022/11/27 01:52:01;;;;;;;;;;;9.20;58.10;;;;;;5053606;28;20264;-88
2022/11/27 01:54:32;;;;;;;;;;;9.20;57.90;;;;;;5050381;28;19927;-87
2022/11/27 01:57:00;;;;;;;;;;;9.10;57.70;;;;;;5041369;28;20382;-88
2022/11/27 01:59:25;;;;;;;;;;;9.00;57.50;;;;;;5064164;28;19920;-89
2022/11/27 02:01:51;;;;;;;;;;;8.90;57.60;;;;;;5054123;28;20378;-87
2022/11/27 02:04:19;;;;;;;;;;;8.80;57.60;;;;;;5052388;28;19928;-87
2022/11/27 02:06:45;;;;;;;;;;;8.80;57.60;;;;;;5055400;28;19920;-88
2022/11/27 02:09:11;;;;;;;;;;;8.80;57.70;;;;;;5073775;28;19925;-87
2022/11/27 02:11:43;;;;;;;;;;;8.70;57.70;;;;;;5072477;28;19915;-88
2022/11/27 02:14:21;;;;;;;;;;;8.70;57.70;;;;;;5059516;28;19916;-88
2022/11/27 02:17:05;;;;;;;;;;;8.60;57.50;;;;;;5073586;28;19965;-88
2022/11/27 02:19:42;;;;;;;;;;;8.50;57.40;;;;;;5055475;28;19916;-87
2022/11/27 02:22:25;;;;;;;;;;;8.40;57.20;;;;;;5072818;28;20345;-88
2022/11/27 02:24:57;;;;;;;;;;;8.30;57.60;;;;;;5057550;28;20007;-88
2022/11/27 02:27:31;;;;;;;;;;;8.30;58.10;;;;;;5070642;28;19916;-87
2022/11/27 02:29:59;;;;;;;;;;;8.20;58.20;;;;;;5052159;28;19920;-88
2022/11/27 02:32:31;;;;;;;;;;;8.20;58.10;;;;;;5064833;28;19924;-87
2022/11/27 02:35:09;;;;;;;;;;;8.10;57.90;;;;;;5043813;28;19963;-88
2022/11/27 02:37:38;;;;;;;;;;;8.10;57.60;;;;;;5041497;28;19923;-88
2022/11/27 02:40:16;;;;;;;;;;;8.00;57.50;;;;;;5047216;28;19971;-87
2022/11/27 02:42:41;;;;;;;;;;;7.90;57.60;;;;;;5052152;28;20355;-87
2022/11/27 02:45:20;;;;;;;;;;;7.80;57.60;;;;;;5053660;28;19917;-88
2022/11/27 02:47:47;;;;;;;;;;;7.80;57.70;;;;;;5063886;28;20299;-87
2022/11/27 02:50:15;;;;;;;;;;;7.70;57.80;;;;;;5041475;28;19913;-87
2022/11/27 02:52:43;;;;;;;;;;;7.70;57.90;;;;;;5045860;28;19924;-88
2022/11/27 02:55:10;;;;;;;;;;;7.60;58.00;;;;;;5038347;28;19956;-87
2022/11/27 02:57:36;;;;;;;;;;;7.60;57.90;;;;;;5065375;28;20249;-87
2022/11/27 03:00:03;;;;;;;;;;;7.50;58.00;;;;;;5055397;28;20394;-86
2022/11/27 03:02:31;;;;;;;;;;;7.50;58.30;;;;;;5057787;28;19917;-86
2022/11/27 03:04:59;;;;;;;;;;;7.50;58.50;;;;;;5047426;28;20047;-88
2022/11/27 03:07:30;;;;;;;;;;;7.50;58.70;;;;;;5039697;28;19917;-88
2022/11/27 03:09:57;;;;;;;;;;;7.50;58.70;;;;;;5050423;28;19916;-88
2022/11/27 03:12:23;;;;;;;;;;;7.50;58.60;;;;;;5039888;28;19987;-87
2022/11/27 03:14:48;;;;;;;;;;;7.50;58.70;;;;;;5039991;28;20027;-87
2022/11/27 03:17:17;;;;;;;;;;;7.50;58.80;;;;;;5063559;28;19921;-87
2022/11/27 03:19:42;;;;;;;;;;;7.50;59.00;;;;;;5051657;28;19913;-88
2022/11/27 03:22:09;;;;;;;;;;;7.50;59.00;;;;;;5045646;28;19919;-88
2022/11/27 03:24:35;;;;;;;;;;;7.50;59.20;;;;;;5060149;28;20442;-87
2022/11/27 03:27:01;;;;;;;;;;;7.50;59.10;;;;;;5047873;28;20015;-88
2022/11/27 03:29:34;;;;;;;;;;;7.60;59.00;;;;;;5061318;28;19924;-87
2022/11/27 03:32:00;;;;;;;;;;;7.60;58.90;;;;;;5039385;28;20426;-87
2022/11/27 03:34:26;;;;;;;;;;;7.60;58.90;;;;;;5065561;28;19978;-86
2022/11/27 03:36:51;;;;;;;;;;;7.60;59.00;;;;;;5072975;28;19908;-87
2022/11/27 03:39:18;;;;;;;;;;;7.60;59.00;;;;;;5035660;28;19927;-88
2022/11/27 03:41:43;;;;;;;;;;;7.60;58.90;;;;;;5034431;28;19909;-88
2022/11/27 03:44:18;;;;;;;;;;;7.60;58.70;;;;;;5044415;28;19923;-87
2022/11/27 03:46:56;;;;;;;;;;;7.60;58.70;;;;;;5056622;28;19931;-87
2022/11/27 03:49:32;;;;;;;;;;;7.50;58.50;;;;;;5073512;28;19974;-89
2022/11/27 03:52:02;;;;;;;;;;;7.50;58.40;;;;;;5059461;28;19916;-87
2022/11/27 03:54:30;;;;;;;;;;;7.50;58.50;;;;;;5049940;28;20239;-88
2022/11/27 03:57:02;;;;;;;;;;;7.50;58.70;;;;;;5034927;28;20454;-88
2022/11/27 03:59:30;;;;;;;;;;;7.50;59.00;;;;;;5051444;28;19920;-88
2022/11/27 04:01:55;;;;;;;;;;;7.50;59.10;;;;;;5073526;28;19944;-87
2022/11/27 04:04:21;;;;;;;;;;;7.50;59.20;;;;;;5056209;28;19913;-87
2022/11/27 04:06:47;;;;;;;;;;;7.50;59.00;;;;;;5050806;28;20465;-87
2022/11/27 04:09:12;;;;;;;;;;;7.50;58.90;;;;;;5060651;28;20321;-88
2022/11/27 04:11:38;;;;;;;;;;;7.50;58.80;;;;;;5091370;28;19913;-88
2022/11/27 04:14:04;;;;;;;;;;;7.50;58.80;;;;;;5091574;28;20355;-88
2022/11/27 04:16:29;;;;;;;;;;;7.40;58.90;;;;;;5074579;28;19955;-86
2022/11/27 04:18:55;;;;;;;;;;;7.40;59.20;;;;;;5086885;28;19920;-87
2022/11/27 04:21:20;;;;;;;;;;;7.40;59.30;;;;;;5051221;28;19936;-87
2022/11/27 04:23:46;;;;;;;;;;;7.40;59.30;;;;;;5044394;28;20510;-87
2022/11/27 04:26:11;;;;;;;;;;;7.40;59.20;;;;;;5033972;28;19959;-86
2022/11/27 04:28:37;;;;;;;;;;;7.50;59.30;;;;;;5040254;28;20414;-87
2022/11/27 04:31:03;;;;;;;;;;;7.50;59.60;;;;;;5032122;28;19917;-88
2022/11/27 04:33:29;;;;;;;;;;;7.50;59.60;;;;;;5038636;28;20009;-87
2022/11/27 04:35:55;;;;;;;;;;;7.50;59.50;;;;;;5040280;28;19927;-87
2022/11/27 04:38:20;;;;;;;;;;;7.50;59.30;;;;;;5051585;28;19916;-87
2022/11/27 04:40:46;;;;;;;;;;;7.50;59.00;;;;;;5052510;28;20367;-87
2022/11/27 04:43:12;;;;;;;;;;;7.50;58.80;;;;;;5046262;28;19959;-87
2022/11/27 04:45:38;;;;;;;;;;;7.50;58.70;;;;;;5057893;28;20403;-87
2022/11/27 04:48:03;;;;;;;;;;;7.40;58.40;;;;;;5063518;28;19940;-87
2022/11/27 04:50:29;;;;;;;;;;;7.40;58.50;;;;;;5042402;28;19923;-87
2022/11/27 04:52:55;;;;;;;;;;;7.40;58.50;;;;;;5056688;28;19920;-87
2022/11/27 04:55:21;;;;;;;;;;;7.40;58.70;;;;;;5038446;28;20480;-88
2022/11/27 04:57:46;;;;;;;;;;;7.40;58.40;;;;;;5033473;28;19999;-87
2022/11/27 05:00:12;;;;;;;;;;;7.30;58.30;;;;;;5037037;28;19956;-87
2022/11/27 05:02:38;;;;;;;;;;;7.30;58.30;;;;;;5060399;28;19925;-86
2022/11/27 05:05:04;;;;;;;;;;;7.30;58.30;;;;;;5049744;28;19936;-87
2022/11/27 05:07:30;;;;;;;;;;;7.30;58.40;;;;;;5051552;28;19916;-86
2022/11/27 05:09:55;;;;;;;;;;;7.30;58.50;;;;;;5047115;28;19917;-87
2022/11/27 05:12:21;;;;;;;;;;;7.20;58.30;;;;;;5039945;28;19917;-86
2022/11/27 05:14:46;;;;;;;;;;;7.20;58.00;;;;;;5046335;28;19960;-87
2022/11/27 05:17:12;;;;;;;;;;;7.20;58.10;;;;;;5034320;28;19916;-87
2022/11/27 05:19:37;;;;;;;;;;;7.20;58.20;;;;;;5052081;28;19919;-87
2022/11/27 05:22:03;;;;;;;;;;;7.10;58.30;;;;;;5051990;28;19909;-85
2022/11/27 05:24:32;;;;;;;;;;;7.10;58.30;;;;;;5072837;28;20405;-87
2022/11/27 05:26:57;;;;;;;;;;;7.10;58.30;;;;;;5055107;28;19916;-86
2022/11/27 05:29:23;;;;;;;;;;;7.10;58.40;;;;;;5055727;28;19978;-86
2022/11/27 05:31:49;;;;;;;;;;;7.10;58.20;;;;;;5074606;28;19958;-86
2022/11/27 05:34:15;;;;;;;;;;;7.10;58.00;;;;;;5079143;28;19930;-88
2022/11/27 05:36:40;;;;;;;;;;;7.00;57.80;;;;;;5056780;28;19919;-87
2022/11/27 05:39:07;;;;;;;;;;;7.00;58.00;;;;;;5054372;28;19994;-87
2022/11/27 05:41:33;;;;;;;;;;;7.00;58.10;;;;;;5052527;28;20349;-87
2022/11/27 05:43:58;;;;;;;;;;;7.00;57.80;;;;;;5051173;28;19917;-87
2022/11/27 05:46:24;;;;;;;;;;;6.90;57.60;;;;;;5056085;28;19932;-88
2022/11/27 05:48:50;;;;;;;;;;;6.90;57.60;;;;;;5053307;28;20007;-86
2022/11/27 05:51:15;;;;;;;;;;;6.90;57.60;;;;;;5053967;28;20029;-86
2022/11/27 05:53:41;;;;;;;;;;;6.90;57.80;;;;;;5054957;28;19916;-86
2022/11/27 05:56:09;;;;;;;;;;;6.90;57.70;;;;;;5057946;28;20023;-86
2022/11/27 05:58:35;;;;;;;;;;;6.80;58.00;;;;;;5065679;28;19921;-88
2022/11/27 06:01:02;;;;;;;;;;;6.80;58.20;;;;;;5066090;28;19916;-88
2022/11/27 06:03:27;;;;;;;;;;;6.90;58.30;;;;;;5055448;28;19935;-87
2022/11/27 06:05:53;;;;;;;;;;;6.90;58.70;;;;;;5050333;28;19912;-87
2022/11/27 06:08:18;;;;;;;;;;;6.90;59.20;;;;;;5071161;28;19924;-86
2022/11/27 06:10:45;;;;;;;;;;;7.00;59.50;;;;;;5070039;28;19991;-88
2022/11/27 06:13:10;;;;;;;;;;;7.10;60.00;;;;;;5080111;28;19916;-88
2022/11/27 06:15:36;;;;;;;;;;;7.20;60.50;;;;;;5058260;28;19981;-88
2022/11/27 06:18:02;;;;;;;;;;;7.30;60.50;;;;;;5053840;28;20359;-88
2022/11/27 06:20:28;;;;;;;;;;;7.40;60.90;;;;;;5048348;28;19923;-87
2022/11/27 06:22:54;;;;;;;;;;;7.50;60.80;;;;;;5069784;28;21662;-87
2022/11/27 06:25:20;;;;;;;;;;;7.60;60.80;;;;;;5050747;28;20003;-88
2022/11/27 06:27:46;;;;;;;;;;;7.60;60.80;;;;;;5068668;28;20019;-86
2022/11/27 06:30:11;;;;;;;;;;;7.70;60.80;;;;;;5052428;28;20371;-88
2022/11/27 06:32:37;;;;;;;;;;;7.80;60.80;;;;;;5045100;28;19920;-87
2022/11/27 06:35:03;;;;;;;;;;;7.80;60.80;;;;;;5045338;28;19913;-86
2022/11/27 06:37:29;;;;;;;;;;;7.90;60.60;;;;;;5058396;28;19963;-87
2022/11/27 06:39:54;;;;;;;;;;;8.00;60.50;;;;;;5072460;28;19912;-86
2022/11/27 06:42:20;;;;;;;;;;;8.00;60.20;;;;;;5051122;28;19912;-87
2022/11/27 06:44:45;;;;;;;;;;;8.10;60.20;;;;;;5079883;28;19974;-87
2022/11/27 06:47:11;;;;;;;;;;;8.10;60.20;;;;;;5070440;28;19925;-86
2022/11/27 06:49:37;;;;;;;;;;;8.10;60.20;;;;;;5051496;28;20405;-87
2022/11/27 06:52:02;;;;;;;;;;;8.20;60.20;;;;;;5059852;28;19966;-88
2022/11/27 06:54:28;;;;;;;;;;;8.20;60.10;;;;;;5055568;28;19921;-87
2022/11/27 06:56:53;;;;;;;;;;;8.30;60.10;;;;;;5057306;28;19955;-88
2022/11/27 06:59:19;;;;;;;;;;;8.30;60.00;;;;;;5061612;28;19924;-87
2022/11/27 07:01:45;;;;;;;;;;;8.30;59.90;;;;;;5074355;28;19992;-87
2022/11/27 07:04:11;;;;;;;;;;;8.30;59.90;;;;;;5071790;28;20332;-87
2022/11/27 07:06:37;;;;;;;;;;;8.30;60.00;;;;;;5050256;28;19947;-87
2022/11/27 07:09:03;;;;;;;;;;;8.40;60.10;;;;;;5073026;28;20376;-88
2022/11/27 07:11:29;;;;;;;;;;;8.40;60.00;;;;;;5070970;28;20404;-88
2022/11/27 07:13:56;;;;;;;;;;;8.40;60.00;;;;;;5053602;28;19928;-88
2022/11/27 07:16:22;;;;;;;;;;;8.50;60.00;;;;;;5055545;28;19916;-88
2022/11/27 07:18:48;;;;;;;;;;;8.50;59.90;;;;;;5062146;28;19982;-87
2022/11/27 07:21:14;;;;;;;;;;;8.60;59.90;;;;;;5081427;28;19970;-88
2022/11/27 07:23:40;;;;;;;;;;;8.60;60.00;;;;;;5063919;28;20444;-87
2022/11/27 07:26:06;;;;;;;;;;;8.60;60.10;;;;;;5081682;28;20362;-87
2022/11/27 07:28:32;;;;;;;;;;;8.70;60.40;;;;;;5057233;28;20074;-88
2022/11/27 07:30:58;;;;;;;;;;;8.80;60.60;;;;;;5037014;28;19967;-88
2022/11/27 07:33:24;;;;;;;;;;;8.90;60.80;;;;;;5058008;28;19920;-87
2022/11/27 07:35:50;;;;;;;;;;;9.10;60.90;;;;;;5053967;28;19922;-87
2022/11/27 07:38:15;;;;;;;;;;;9.20;61.00;;;;;;5054026;28;19917;-87
2022/11/27 07:40:41;;;;;;;;;;;9.30;61.30;;;;;;5071529;28;19916;-88
2022/11/27 07:43:06;;;;;;;;;;;9.50;61.50;;;;;;5071420;28;19939;-88
2022/11/27 07:45:32;;;;;;;;;;;9.70;61.20;;;;;;5041597;28;20387;-88
2022/11/27 07:47:57;;;;;;;;;;;9.80;60.50;;;;;;5047154;28;19951;-88
2022/11/27 07:50:23;;;;;;;;;;;9.80;60.30;;;;;;5054375;28;20331;-87
2022/11/27 07:52:48;;;;;;;;;;;9.80;60.00;;;;;;5047601;28;19929;-87
2022/11/27 07:55:14;;;;;;;;;;;9.90;60.20;;;;;;5066959;28;19916;-88
2022/11/27 07:57:41;;;;;;;;;;;10.00;60.40;;;;;;5050755;28;19944;-87
2022/11/27 08:00:07;;;;;;;;;;;10.00;60.20;;;;;;5090561;28;19994;-87
2022/11/27 08:02:33;;;;;;;;;;;10.10;59.80;;;;;;5075348;28;19952;-87
2022/11/27 08:04:58;;;;;;;;;;;10.10;59.50;;;;;;5042739;28;19960;-87
2022/11/27 08:07:27;;;;;;;;;;;10.00;59.40;;;;;;5050459;28;20011;-87
2022/11/27 08:09:53;;;;;;;;;;;10.10;59.40;;;;;;5044197;28;19973;-87
2022/11/27 08:12:18;;;;;;;;;;;10.00;59.40;;;;;;5041033;28;19921;-88
2022/11/27 08:14:44;;;;;;;;;;;10.10;59.50;;;;;;5045710;28;20007;-87
2022/11/27 08:17:13;;;;;;;;;;;10.10;59.60;;;;;;5050591;28;19916;-88
2022/11/27 08:19:38;;;;;;;;;;;10.20;60.30;;;;;;5044560;28;19931;-88
2022/11/27 08:22:05;;;;;;;;;;;10.40;61.80;;;;;;5049998;28;20353;-87
2022/11/27 08:24:31;;;;;;;;;;;10.80;62.30;;;;;;5047610;28;19923;-87
2022/11/27 08:26:57;;;;;;;;;;;11.00;62.30;;;;;;5052547;28;19909;-88
2022/11/27 08:29:25;;;;;;;;;;;11.30;62.00;;;;;;5060034;28;19931;-88
2022/11/27 08:31:50;;;;;;;;;;;11.50;61.40;;;;;;5072170;28;19908;-89
2022/11/27 08:34:16;;;;;;;;;;;11.60;60.60;;;;;;5058956;28;20391;-89
2022/11/27 08:36:41;;;;;;;;;;;11.70;60.40;;;;;;5054233;28;19912;-88
2022/11/27 08:39:07;;;;;;;;;;;11.70;60.20;;;;;;5048382;28;19912;-87
2022/11/27 08:41:35;;;;;;;;;;;11.80;59.80;;;;;;5055831;28;19912;-87
2022/11/27 08:44:00;;;;;;;;;;;11.80;59.80;;;;;;5051588;28;19975;-88
2022/11/27 08:46:26;;;;;;;;;;;11.90;60.00;;;;;;5071120;28;20674;-88
2022/11/27 08:48:51;;;;;;;;;;;12.00;59.90;;;;;;5053499;28;19925;-88
2022/11/27 08:51:17;;;;;;;;;;;12.00;59.70;;;;;;5055213;28;19919;-88
2022/11/27 08:53:44;;;;;;;;;;;12.00;59.30;;;;;;5074974;28;20009;-89
2022/11/27 08:56:15;;;;;;;;;;;12.10;59.00;;;;;;5054301;28;20003;-88
2022/11/27 08:58:40;;;;;;;;;;;12.10;58.90;;;;;;5053377;28;19960;-88
2022/11/27 09:01:06;;;;;;;;;;;12.20;59.60;;;;;;5054825;28;20017;-88
2022/11/27 09:03:32;;;;;;;;;;;12.40;59.80;;;;;;5072983;28;19917;-88
2022/11/27 09:05:58;;;;;;;;;;;12.60;60.50;;;;;;5074607;28;19909;-88
2022/11/27 09:08:23;;;;;;;;;;;12.80;60.20;;;;;;5053503;28;19964;-88
2022/11/27 09:10:49;;;;;;;;;;;12.90;59.60;;;;;;5035953;28;19974;-87
2022/11/27 09:13:14;;;;;;;;;;;13.00;58.20;;;;;;5040469;28;20334;-87
2022/11/27 09:15:40;;;;;;;;;;;12.90;57.90;;;;;;5056514;28;20405;-87
2022/11/27 09:18:05;;;;;;;;;;;12.80;57.60;;;;;;5056348;28;19962;-87
2022/11/27 09:20:31;;;;;;;;;;;12.80;57.60;;;;;;5055780;28;19908;-87
2022/11/27 09:22:57;;;;;;;;;;;12.80;57.20;;;;;;5074833;28;20360;-87
2022/11/27 09:25:23;;;;;;;;;;;12.70;57.30;;;;;;5083563;28;19909;-87
2022/11/27 09:27:48;;;;;;;;;;;12.70;57.50;;;;;;5065349;28;20007;-87
2022/11/27 09:30:14;;;;;;;;;;;12.70;57.70;;;;;;5082790;28;19912;-86
2022/11/27 09:32:39;;;;;;;;;;;12.70;57.80;;;;;;5064740;28;19916;-87
2022/11/27 09:35:05;;;;;;;;;;;12.70;58.00;;;;;;5088233;28;19913;-87
2022/11/27 09:37:30;;;;;;;;;;;12.80;58.00;;;;;;5069864;28;20286;-87
2022/11/27 09:39:58;;;;;;;;;;;12.80;58.00;;;;;;5052745;28;19916;-87
2022/11/27 09:42:29;;;;;;;;;;;12.90;58.20;;;;;;5047517;28;19932;-85
2022/11/27 09:44:57;;;;;;;;;;;13.00;58.60;;;;;;5055536;28;19920;-86
2022/11/27 09:47:29;;;;;;;;;;;13.10;58.50;;;;;;5066121;28;19976;-87
2022/11/27 09:50:00;;;;;;;;;;;13.20;58.90;;;;;;5064790;28;19928;-87
2022/11/27 09:52:35;;;;;;;;;;;13.30;58.60;;;;;;5064480;28;19999;-87
2022/11/27 09:55:02;;;;;;;;;;;13.40;58.30;;;;;;5072641;28;19916;-87
2022/11/27 09:57:31;;;;;;;;;;;13.50;58.60;;;;;;5054681;28;19921;-87
2022/11/27 09:59:59;;;;;;;;;;;13.60;57.90;;;;;;5071425;28;19955;-89
2022/11/27 10:02:27;;;;;;;;;;;13.70;57.90;;;;;;5069853;28;20760;-86
2022/11/27 10:04:53;;;;;;;;;;;13.80;56.90;;;;;;5051424;28;19983;-87
2022/11/27 10:07:45;;;;;;;;;;;13.80;56.10;;;;;;5066905;28;19913;-88
2022/11/27 10:10:22;;;;;;;;;;;14.00;56.30;;;;;;5042816;28;19924;-88
2022/11/27 10:12:57;;;;;;;;;;;14.10;56.10;;;;;;5068279;28;19934;-87
2022/11/27 10:15:49;;;;;;;;;;;14.20;55.20;;;;;;5069113;28;19917;-88
2022/11/27 10:18:34;;;;;;;;;;;14.30;55.30;;;;;;5054002;28;19926;-89
2022/11/27 10:21:11;;;;;;;;;;;14.30;55.30;;;;;;5054804;28;19917;-87
2022/11/27 10:23:41;;;;;;;;;;;14.40;55.60;;;;;;5071045;28;20017;-88
2022/11/27 10:26:13;;;;;;;;;;;14.50;54.30;;;;;;5072982;28;19927;-89
2022/11/27 10:28:45;;;;;;;;;;;14.60;54.40;;;;;;5081545;28;19993;-87
2022/11/27 10:31:17;;;;;;;;;;;14.60;53.90;;;;;;5069028;28;19962;-88
2022/11/27 10:33:53;;;;;;;;;;;14.60;53.00;;;;;;5040514;28;19939;-87
2022/11/27 10:36:25;;;;;;;;;;;14.70;53.50;;;;;;5057535;28;19969;-87
2022/11/27 10:38:51;;;;;;;;;;;14.80;53.70;;;;;;5052406;28;19956;-87
2022/11/27 10:41:20;;;;;;;;;;;14.80;53.60;;;;;;5044050;28;19924;-87
2022/11/27 10:43:48;;;;;;;;;;;14.90;53.60;;;;;;5038345;28;19966;-87
2022/11/27 10:46:17;;;;;;;;;;;15.00;53.70;;;;;;5042922;28;19920;-86
2022/11/27 10:48:45;;;;;;;;;;;15.10;53.80;;;;;;5038310;28;19928;-88
2022/11/27 10:51:16;;;;;;;;;;;15.20;53.40;;;;;;5039844;28;19976;-89
2022/11/27 10:53:43;;;;;;;;;;;15.20;53.50;;;;;;5060809;28;19924;-87
2022/11/27 10:56:18;;;;;;;;;;;15.40;53.90;;;;;;5041257;28;19921;-87
2022/11/27 10:58:57;;;;;;;;;;;15.50;53.80;;;;;;5053201;28;19984;-87
2022/11/27 11:01:24;;;;;;;;;;;15.70;53.60;;;;;;5060297;28;20042;-87
2022/11/27 11:03:50;;;;;;;;;;;15.80;53.60;;;;;;5052498;28;19921;-88
2022/11/27 11:06:23;;;;;;;;;;;16.00;54.40;;;;;;5054633;28;19912;-88
2022/11/27 11:09:12;;;;;;;;;;;16.10;53.70;;;;;;5073101;28;20371;-89
2022/11/27 11:11:37;;;;;;;;;;;16.20;52.50;;;;;;5042137;28;19916;-87
2022/11/27 11:14:03;;;;;;;;;;;16.30;52.20;;;;;;5050003;28;19923;-87
2022/11/27 11:16:31;;;;;;;;;;;16.40;51.70;;;;;;5031966;28;19913;-88
2022/11/27 11:18:57;;;;;;;;;;;16.50;52.00;;;;;;5043426;28;19920;-87
2022/11/27 11:21:25;;;;;;;;;;;16.60;52.20;;;;;;5064606;28;19916;-89
2022/11/27 11:23:57;;;;;;;;;;;16.60;51.30;;;;;;5065495;28;19927;-87
2022/11/27 11:26:22;;;;;;;;;;;16.60;50.70;;;;;;5063346;28;19978;-89
2022/11/27 11:28:49;;;;;;;;;;;16.70;50.80;;;;;;5047158;28;19929;-87
2022/11/27 11:31:17;;;;;;;;;;;16.70;51.70;;;;;;5067363;28;20236;-87
2022/11/27 11:33:51;;;;;;;;;;;16.80;51.20;;;;;;5050863;28;20012;-87
2022/11/27 11:36:17;;;;;;;;;;;16.80;50.60;;;;;;5053054;28;19916;-88
2022/11/27 11:38:44;;;;;;;;;;;16.80;50.60;;;;;;5049406;28;19924;-89
2022/11/27 11:41:11;;;;;;;;;;;16.80;50.00;;;;;;5050272;28;19917;-88
2022/11/27 11:43:37;;;;;;;;;;;16.90;49.90;;;;;;5048129;28;19931;-88
2022/11/27 11:46:17;;;;;;;;;;;16.90;49.60;;;;;;5057936;28;19924;-89
2022/11/27 11:48:51;;;;;;;;;;;17.00;49.50;;;;;;5061669;28;19929;-88
2022/11/27 11:51:20;;;;;;;;;;;16.90;49.60;;;;;;5071898;28;19923;-88
2022/11/27 11:53:50;;;;;;;;;;;16.90;48.70;;;;;;5049307;28;20375;-89
2022/11/27 11:56:27;;;;;;;;;;;16.90;48.80;;;;;;5045713;28;20003;-88
2022/11/27 11:58:57;;;;;;;;;;;17.00;48.60;;;;;;5063620;28;19921;-89
2022/11/27 12:01:29;;;;;;;;;;;17.00;48.00;;;;;;5045378;28;19923;-89
2022/11/27 12:03:57;;;;;;;;;;;16.90;47.80;;;;;;5047091;28;19927;-89
2022/11/27 12:06:30;;;;;;;;;;;16.90;47.40;;;;;;5047306;28;19912;-89
2022/11/27 12:08:55;;;;;;;;;;;16.80;46.60;;;;;;5049082;28;19928;-88
2022/11/27 12:11:21;;;;;;;;;;;16.90;47.10;;;;;;5064500;28;19912;-89
2022/11/27 12:13:59;;;;;;;;;;;16.90;46.70;;;;;;5048110;28;19928;-90
2022/11/27 12:16:40;;;;;;;;;;;17.00;47.00;;;;;;5052741;28;19923;-87
2022/11/27 12:19:09;;;;;;;;;;;17.00;47.40;;;;;;5045859;28;19939;-88
2022/11/27 12:21:37;;;;;;;;;;;17.00;47.50;;;;;;5053388;28;19917;-90
2022/11/27 12:24:10;;;;;;;;;;;17.00;46.00;;;;;;5046800;28;19927;-89
2022/11/27 12:26:55;;;;;;;;;;;17.10;47.00;;;;;;5053522;28;20295;-88
2022/11/27 12:29:40;;;;;;;;;;;17.10;46.80;;;;;;5069921;28;19929;-89
2022/11/27 12:32:11;;;;;;;;;;;17.10;45.20;;;;;;5039138;28;20367;-88
2022/11/27 12:34:42;;;;;;;;;;;17.10;46.60;;;;;;5056151;28;19979;-88
2022/11/27 12:37:08;;;;;;;;;;;17.20;46.70;;;;;;5039725;28;19908;-88
2022/11/27 12:39:33;;;;;;;;;;;17.20;45.80;;;;;;5050331;28;19917;-88
2022/11/27 12:42:05;;;;;;;;;;;17.20;45.70;;;;;;5048402;28;19920;-88
2022/11/27 12:44:48;;;;;;;;;;;17.20;45.80;;;;;;5056780;28;19974;-90
2022/11/27 12:47:21;;;;;;;;;;;17.30;46.00;;;;;;5049916;28;19912;-88
2022/11/27 12:49:49;;;;;;;;;;;17.30;46.30;;;;;;5041822;28;20056;-89
2022/11/27 12:52:17;;;;;;;;;;;17.30;46.50;;;;;;5029592;28;20683;-89
2022/11/27 12:54:52;;;;;;;;;;;17.30;45.50;;;;;;5039626;28;19920;-90
2022/11/27 12:57:20;;;;;;;;;;;17.30;44.90;;;;;;5028691;28;19935;-88
2022/11/27 12:59:52;;;;;;;;;;;17.30;44.40;;;;;;5059522;28;19916;-88
2022/11/27 13:02:25;;;;;;;;;;;17.30;43.50;;;;;;5066359;28;19913;-90
2022/11/27 13:04:56;;;;;;;;;;;17.30;43.30;;;;;;5040668;28;19958;-88
2022/11/27 13:07:39;;;;;;;;;;;17.20;43.60;;;;;;5049231;28;19935;-86
2022/11/27 13:10:10;;;;;;;;;;;17.20;43.20;;;;;;5064188;28;20006;-87
2022/11/27 13:12:48;;;;;;;;;;;17.20;42.80;;;;;;5049868;28;19913;-88
2022/11/27 13:15:19;;;;;;;;;;;17.20;42.70;;;;;;5070323;28;20011;-88
2022/11/27 13:17:48;;;;;;;;;;;17.20;42.50;;;;;;5048182;28;19920;-88
2022/11/27 13:20:18;;;;;;;;;;;17.20;42.20;;;;;;5066632;28;19963;-89
2022/11/27 13:22:44;;;;;;;;;;;17.20;42.30;;;;;;5050573;28;19916;-89
2022/11/27 13:25:13;;;;;;;;;;;17.20;43.10;;;;;;5065938;28;19916;-87
2022/11/27 13:27:40;;;;;;;;;;;17.20;42.30;;;;;;5066734;28;19924;-88
2022/11/27 13:30:08;;;;;;;;;;;17.20;42.40;;;;;;5049932;28;19991;-88
2022/11/27 13:32:34;;;;;;;;;;;17.20;42.10;;;;;;5046339;28;19924;-90
2022/11/27 13:35:03;;;;;;;;;;;17.10;41.60;;;;;;5046035;28;19916;-87
2022/11/27 13:37:31;;;;;;;;;;;17.10;41.30;;;;;;5048563;28;19943;-88
2022/11/27 13:40:02;;;;;;;;;;;17.00;41.60;;;;;;5048523;28;19912;-88
2022/11/27 13:42:28;;;;;;;;;;;17.00;41.20;;;;;;5048783;28;19939;-87
2022/11/27 13:44:56;;;;;;;;;;;16.90;41.20;;;;;;5047842;28;20274;-89
2022/11/27 13:47:23;;;;;;;;;;;16.80;41.30;;;;;;5053291;28;20367;-89
2022/11/27 13:50:02;;;;;;;;;;;16.80;41.40;;;;;;5053928;28;19925;-90
2022/11/27 13:52:28;;;;;;;;;;;16.80;41.10;;;;;;5053462;28;20375;-89
2022/11/27 13:54:58;;;;;;;;;;;16.80;41.40;;;;;;5053869;28;20713;-90
2022/11/27 13:57:25;;;;;;;;;;;16.70;41.20;;;;;;5054559;28;19912;-88
2022/11/27 14:00:05;;;;;;;;;;;16.60;40.80;;;;;;5054098;28;20000;-89
2022/11/27 14:02:41;;;;;;;;;;;16.60;40.80;;;;;;5053159;28;20413;-89
2022/11/27 14:05:11;;;;;;;;;;;16.50;41.20;;;;;;5054061;28;19919;-89
2022/11/27 14:07:40;;;;;;;;;;;16.50;40.80;;;;;;5078644;28;19959;-90
2022/11/27 14:10:08;;;;;;;;;;;16.40;40.90;;;;;;5064633;28;19924;-89
2022/11/27 14:12:35;;;;;;;;;;;16.30;40.80;;;;;;5053204;28;19920;-88
2022/11/27 14:15:03;;;;;;;;;;;16.30;41.10;;;;;;5072633;28;19912;-92
2022/11/27 14:17:34;;;;;;;;;;;16.30;40.90;;;;;;5052254;28;19977;-90
2022/11/27 14:20:03;;;;;;;;;;;16.30;40.80;;;;;;5044714;28;19916;-88
2022/11/27 14:22:34;;;;;;;;;;;16.20;40.60;;;;;;5035344;28;19964;-90
2022/11/27 14:25:01;;;;;;;;;;;16.10;40.60;;;;;;5041445;28;19962;-87
2022/11/27 14:27:31;;;;;;;;;;;16.10;40.80;;;;;;5049492;28;19921;-87
2022/11/27 14:30:10;;;;;;;;;;;16.10;41.00;;;;;;5044055;28;19925;-88